sensor_id;sensor_type;location;lat;lon;timestamp;P1;durP1;ratioP1;P2;durP2;ratioP2
20945;SDS011;10632;51.276;7.116;2023-04-01T00:00:46;2.67;;;0.20;;
20945;SDS011;10632;51.276;7.116;2023-04-01T00:03:13;1.08;;;0.20;;
20945;SDS011;10632;51.276;7.116;2023-04-01T00:05:40;0.77;;;0.20;;
20945;SDS011;10632;51.276;7.116;2023-04-01T00:08:07;5.32;;;0.50;;
20945;SDS011;10632;51.276;7.116;2023-04-01T00:10:34;1.00;;;0.32;;
20945;SDS011;10632;51.276;7.116;2023-04-01T00:13:01;1.52;;;0.30;;
20945;SDS011;10632;51.276;7.116;2023-04-01T00:15:29;0.88;;;0.43;;
20945;SDS011;10632;51.276;7.116;2023-04-01T00:17:56;2.50;;;0.57;;
20945;SDS011;10632;51.276;7.116;2023-04-01T00:20:23;1.77;;;0.30;;
20945;SDS011;10632;51.276;7.116;2023-04-01T00:22:50;1.48;;;0.30;;
20945;SDS011;10632;51.276;7.116;2023-04-01T00:25:17;1.40;;;0.40;;
20945;SDS011;10632;51.276;7.116;2023-04-01T00:27:44;0.65;;;0.30;;
20945;SDS011;10632;51.276;7.116;2023-04-01T00:30:11;0.88;;;0.43;;
20945;SDS011;10632;51.276;7.116;2023-04-01T00:32:40;1.38;;;0.45;;
20945;SDS011;10632;51.276;7.116;2023-04-01T00:35:07;0.70;;;0.30;;
20945;SDS011;10632;51.276;7.116;2023-04-01T00:37:35;2.45;;;0.30;;
20945;SDS011;10632;51.276;7.116;2023-04-01T00:40:03;0.40;;;0.20;;
20945;SDS011;10632;51.276;7.116;2023-04-01T00:42:31;0.80;;;0.40;;
20945;SDS011;10632;51.276;7.116;2023-04-01T00:44:58;2.88;;;0.30;;
20945;SDS011;10632;51.276;7.116;2023-04-01T00:47:47;0.55;;;0.28;;
20945;SDS011;10632;51.276;7.116;2023-04-01T00:50:14;3.97;;;0.40;;
20945;SDS011;10632;51.276;7.116;2023-04-01T00:52:41;0.50;;;0.20;;
20945;SDS011;10632;51.276;7.116;2023-04-01T00:55:08;0.93;;;0.25;;
20945;SDS011;10632;51.276;7.116;2023-04-01T00:57:39;1.63;;;0.50;;
20945;SDS011;10632;51.276;7.116;2023-04-01T01:00:10;0.85;;;0.20;;
20945;SDS011;10632;51.276;7.116;2023-04-01T01:02:40;6.32;;;0.40;;
20945;SDS011;10632;51.276;7.116;2023-04-01T01:05:10;1.75;;;0.25;;
20945;SDS011;10632;51.276;7.116;2023-04-01T01:07:40;2.22;;;0.28;;
20945;SDS011;10632;51.276;7.116;2023-04-01T01:10:16;0.45;;;0.20;;
20945;SDS011;10632;51.276;7.116;2023-04-01T01:12:45;5.15;;;0.60;;
20945;SDS011;10632;51.276;7.116;2023-04-01T01:15:20;1.42;;;0.45;;
20945;SDS011;10632;51.276;7.116;2023-04-01T01:17:52;0.73;;;0.30;;
20945;SDS011;10632;51.276;7.116;2023-04-01T01:23:38;1.52;;;0.47;;
20945;SDS011;10632;51.276;7.116;2023-04-01T01:26:52;1.70;;;0.32;;
20945;SDS011;10632;51.276;7.116;2023-04-01T01:29:31;0.80;;;0.50;;
20945;SDS011;10632;51.276;7.116;2023-04-01T01:32:30;0.88;;;0.40;;
20945;SDS011;10632;51.276;7.116;2023-04-01T01:35:26;1.85;;;0.50;;
20945;SDS011;10632;51.276;7.116;2023-04-01T01:37:58;0.95;;;0.40;;
20945;SDS011;10632;51.276;7.116;2023-04-01T01:40:28;1.08;;;0.30;;
20945;SDS011;10632;51.276;7.116;2023-04-01T01:42:59;1.02;;;0.25;;
20945;SDS011;10632;51.276;7.116;2023-04-01T01:45:31;0.85;;;0.22;;
20945;SDS011;10632;51.276;7.116;2023-04-01T01:48:01;1.25;;;0.47;;
20945;SDS011;10632;51.276;7.116;2023-04-01T01:50:31;1.52;;;0.50;;
20945;SDS011;10632;51.276;7.116;2023-04-01T01:53:01;2.95;;;0.30;;
20945;SDS011;10632;51.276;7.116;2023-04-01T01:55:30;0.95;;;0.40;;
20945;SDS011;10632;51.276;7.116;2023-04-01T01:57:59;1.60;;;0.40;;
20945;SDS011;10632;51.276;7.116;2023-04-01T02:00:30;1.70;;;0.35;;
20945;SDS011;10632;51.276;7.116;2023-04-01T02:02:59;1.48;;;0.40;;
20945;SDS011;10632;51.276;7.116;2023-04-01T02:05:27;1.50;;;0.30;;
20945;SDS011;10632;51.276;7.116;2023-04-01T02:08:02;0.85;;;0.30;;
20945;SDS011;10632;51.276;7.116;2023-04-01T02:10:34;1.85;;;0.40;;
20945;SDS011;10632;51.276;7.116;2023-04-01T02:13:05;2.90;;;0.20;;
20945;SDS011;10632;51.276;7.116;2023-04-01T02:18:06;1.30;;;0.43;;
20945;SDS011;10632;51.276;7.116;2023-04-01T02:20:34;3.70;;;0.20;;
20945;SDS011;10632;51.276;7.116;2023-04-01T02:23:03;0.30;;;0.20;;
20945;SDS011;10632;51.276;7.116;2023-04-01T02:25:34;0.30;;;0.10;;
20945;SDS011;10632;51.276;7.116;2023-04-01T02:28:02;1.85;;;0.40;;
20945;SDS011;10632;51.276;7.116;2023-04-01T02:30:33;0.30;;;0.20;;
20945;SDS011;10632;51.276;7.116;2023-04-01T02:33:03;2.17;;;0.25;;
20945;SDS011;10632;51.276;7.116;2023-04-01T02:35:32;1.02;;;0.40;;
20945;SDS011;10632;51.276;7.116;2023-04-01T02:38:00;0.85;;;0.40;;
20945;SDS011;10632;51.276;7.116;2023-04-01T02:40:29;1.15;;;0.40;;
20945;SDS011;10632;51.276;7.116;2023-04-01T02:42:56;3.78;;;0.50;;
20945;SDS011;10632;51.276;7.116;2023-04-01T02:45:22;0.57;;;0.38;;
20945;SDS011;10632;51.276;7.116;2023-04-01T02:47:49;0.73;;;0.28;;
20945;SDS011;10632;51.276;7.116;2023-04-01T02:50:16;0.80;;;0.30;;
20945;SDS011;10632;51.276;7.116;2023-04-01T02:52:43;2.15;;;0.50;;
20945;SDS011;10632;51.276;7.116;2023-04-01T02:55:10;0.93;;;0.40;;
20945;SDS011;10632;51.276;7.116;2023-04-01T02:57:38;0.80;;;0.40;;
20945;SDS011;10632;51.276;7.116;2023-04-01T03:00:06;1.00;;;0.40;;
20945;SDS011;10632;51.276;7.116;2023-04-01T03:02:37;0.75;;;0.25;;
20945;SDS011;10632;51.276;7.116;2023-04-01T03:05:09;1.38;;;0.50;;
20945;SDS011;10632;51.276;7.116;2023-04-01T03:07:36;0.57;;;0.20;;
20945;SDS011;10632;51.276;7.116;2023-04-01T03:10:03;1.13;;;0.40;;
20945;SDS011;10632;51.276;7.116;2023-04-01T03:12:31;1.55;;;0.30;;
20945;SDS011;10632;51.276;7.116;2023-04-01T03:14:59;1.00;;;0.40;;
20945;SDS011;10632;51.276;7.116;2023-04-01T03:17:26;0.93;;;0.38;;
20945;SDS011;10632;51.276;7.116;2023-04-01T03:19:53;1.95;;;0.45;;
20945;SDS011;10632;51.276;7.116;2023-04-01T03:22:20;0.70;;;0.30;;
20945;SDS011;10632;51.276;7.116;2023-04-01T03:24:47;0.47;;;0.20;;
20945;SDS011;10632;51.276;7.116;2023-04-01T03:27:14;2.90;;;0.68;;
20945;SDS011;10632;51.276;7.116;2023-04-01T03:29:41;1.48;;;0.30;;
20945;SDS011;10632;51.276;7.116;2023-04-01T03:32:09;1.15;;;0.38;;
20945;SDS011;10632;51.276;7.116;2023-04-01T03:34:36;0.65;;;0.22;;
20945;SDS011;10632;51.276;7.116;2023-04-01T03:37:03;1.35;;;0.40;;
20945;SDS011;10632;51.276;7.116;2023-04-01T03:39:30;0.98;;;0.43;;
20945;SDS011;10632;51.276;7.116;2023-04-01T03:41:57;2.05;;;0.50;;
20945;SDS011;10632;51.276;7.116;2023-04-01T03:44:25;1.00;;;0.30;;
20945;SDS011;10632;51.276;7.116;2023-04-01T03:46:52;2.30;;;0.40;;
20945;SDS011;10632;51.276;7.116;2023-04-01T03:49:20;2.30;;;0.50;;
20945;SDS011;10632;51.276;7.116;2023-04-01T03:51:47;0.68;;;0.35;;
20945;SDS011;10632;51.276;7.116;2023-04-01T03:54:14;1.52;;;0.57;;
20945;SDS011;10632;51.276;7.116;2023-04-01T03:56:42;0.93;;;0.30;;
20945;SDS011;10632;51.276;7.116;2023-04-01T03:59:09;0.90;;;0.40;;
20945;SDS011;10632;51.276;7.116;2023-04-01T04:01:36;1.13;;;0.40;;
20945;SDS011;10632;51.276;7.116;2023-04-01T04:04:02;1.33;;;0.50;;
20945;SDS011;10632;51.276;7.116;2023-04-01T04:06:32;1.40;;;0.40;;
20945;SDS011;10632;51.276;7.116;2023-04-01T04:08:59;1.27;;;0.47;;
20945;SDS011;10632;51.276;7.116;2023-04-01T04:11:26;1.77;;;0.60;;
20945;SDS011;10632;51.276;7.116;2023-04-01T04:13:52;2.72;;;0.65;;
20945;SDS011;10632;51.276;7.116;2023-04-01T04:16:20;1.88;;;0.75;;
20945;SDS011;10632;51.276;7.116;2023-04-01T04:18:46;2.28;;;0.52;;
20945;SDS011;10632;51.276;7.116;2023-04-01T04:21:13;1.70;;;0.60;;
20945;SDS011;10632;51.276;7.116;2023-04-01T04:23:44;4.35;;;0.70;;
20945;SDS011;10632;51.276;7.116;2023-04-01T04:26:17;6.03;;;0.80;;
20945;SDS011;10632;51.276;7.116;2023-04-01T04:28:44;1.08;;;0.57;;
20945;SDS011;10632;51.276;7.116;2023-04-01T04:31:11;1.92;;;0.80;;
20945;SDS011;10632;51.276;7.116;2023-04-01T04:33:37;1.90;;;0.85;;
20945;SDS011;10632;51.276;7.116;2023-04-01T04:36:05;1.58;;;0.70;;
20945;SDS011;10632;51.276;7.116;2023-04-01T04:38:32;2.55;;;0.75;;
20945;SDS011;10632;51.276;7.116;2023-04-01T04:41:00;1.80;;;0.63;;
20945;SDS011;10632;51.276;7.116;2023-04-01T04:43:27;1.60;;;0.60;;
20945;SDS011;10632;51.276;7.116;2023-04-01T04:45:54;1.15;;;0.40;;
20945;SDS011;10632;51.276;7.116;2023-04-01T04:48:21;1.10;;;0.52;;
20945;SDS011;10632;51.276;7.116;2023-04-01T04:50:48;2.05;;;0.65;;
20945;SDS011;10632;51.276;7.116;2023-04-01T04:53:16;3.17;;;0.80;;
20945;SDS011;10632;51.276;7.116;2023-04-01T04:55:44;1.65;;;0.60;;
20945;SDS011;10632;51.276;7.116;2023-04-01T04:58:13;1.30;;;0.50;;
20945;SDS011;10632;51.276;7.116;2023-04-01T05:00:40;2.30;;;0.80;;
20945;SDS011;10632;51.276;7.116;2023-04-01T05:03:08;2.05;;;0.80;;
20945;SDS011;10632;51.276;7.116;2023-04-01T05:05:35;1.58;;;0.70;;
20945;SDS011;10632;51.276;7.116;2023-04-01T05:08:02;1.77;;;0.77;;
20945;SDS011;10632;51.276;7.116;2023-04-01T05:10:30;4.65;;;0.70;;
20945;SDS011;10632;51.276;7.116;2023-04-01T05:12:57;1.95;;;0.60;;
20945;SDS011;10632;51.276;7.116;2023-04-01T05:15:26;1.77;;;0.50;;
20945;SDS011;10632;51.276;7.116;2023-04-01T05:17:53;1.77;;;0.70;;
20945;SDS011;10632;51.276;7.116;2023-04-01T05:20:20;2.88;;;1.25;;
20945;SDS011;10632;51.276;7.116;2023-04-01T05:22:47;2.20;;;0.75;;
20945;SDS011;10632;51.276;7.116;2023-04-01T05:25:14;2.05;;;0.80;;
20945;SDS011;10632;51.276;7.116;2023-04-01T05:27:41;2.65;;;0.80;;
20945;SDS011;10632;51.276;7.116;2023-04-01T05:30:08;2.60;;;0.73;;
20945;SDS011;10632;51.276;7.116;2023-04-01T05:32:36;1.63;;;0.70;;
20945;SDS011;10632;51.276;7.116;2023-04-01T05:35:04;2.22;;;1.10;;
20945;SDS011;10632;51.276;7.116;2023-04-01T05:37:33;1.23;;;0.60;;
20945;SDS011;10632;51.276;7.116;2023-04-01T05:40:00;3.05;;;1.20;;
20945;SDS011;10632;51.276;7.116;2023-04-01T05:42:27;2.55;;;1.08;;
20945;SDS011;10632;51.276;7.116;2023-04-01T05:44:54;1.75;;;0.73;;
20945;SDS011;10632;51.276;7.116;2023-04-01T05:47:21;1.58;;;0.70;;
20945;SDS011;10632;51.276;7.116;2023-04-01T05:49:50;2.33;;;0.80;;
20945;SDS011;10632;51.276;7.116;2023-04-01T05:52:17;2.22;;;0.60;;
20945;SDS011;10632;51.276;7.116;2023-04-01T05:54:43;2.97;;;0.90;;
20945;SDS011;10632;51.276;7.116;2023-04-01T05:57:10;2.33;;;0.98;;
20945;SDS011;10632;51.276;7.116;2023-04-01T05:59:37;1.92;;;0.80;;
20945;SDS011;10632;51.276;7.116;2023-04-01T06:02:04;2.97;;;0.80;;
20945;SDS011;10632;51.276;7.116;2023-04-01T06:04:32;2.42;;;1.00;;
20945;SDS011;10632;51.276;7.116;2023-04-01T06:07:08;1.33;;;0.77;;
20945;SDS011;10632;51.276;7.116;2023-04-01T06:09:38;1.40;;;0.70;;
20945;SDS011;10632;51.276;7.116;2023-04-01T06:12:10;1.50;;;0.57;;
20945;SDS011;10632;51.276;7.116;2023-04-01T06:14:58;1.30;;;0.50;;
20945;SDS011;10632;51.276;7.116;2023-04-01T06:17:41;2.08;;;0.77;;
20945;SDS011;10632;51.276;7.116;2023-04-01T06:20:19;2.40;;;0.80;;
20945;SDS011;10632;51.276;7.116;2023-04-01T06:22:58;2.90;;;0.68;;
20945;SDS011;10632;51.276;7.116;2023-04-01T06:25:38;1.25;;;0.60;;
20945;SDS011;10632;51.276;7.116;2023-04-01T06:28:22;3.67;;;0.73;;
20945;SDS011;10632;51.276;7.116;2023-04-01T06:31:05;1.90;;;0.60;;
20945;SDS011;10632;51.276;7.116;2023-04-01T06:33:50;1.50;;;0.55;;
20945;SDS011;10632;51.276;7.116;2023-04-01T06:36:29;2.50;;;0.80;;
20945;SDS011;10632;51.276;7.116;2023-04-01T06:42:09;2.55;;;1.00;;
20945;SDS011;10632;51.276;7.116;2023-04-01T06:44:53;2.53;;;0.75;;
20945;SDS011;10632;51.276;7.116;2023-04-01T06:47:36;1.88;;;0.73;;
20945;SDS011;10632;51.276;7.116;2023-04-01T06:50:11;1.65;;;0.80;;
20945;SDS011;10632;51.276;7.116;2023-04-01T06:52:49;1.48;;;0.70;;
20945;SDS011;10632;51.276;7.116;2023-04-01T06:55:30;2.05;;;0.80;;
20945;SDS011;10632;51.276;7.116;2023-04-01T06:58:03;2.80;;;1.10;;
20945;SDS011;10632;51.276;7.116;2023-04-01T07:00:32;3.00;;;0.90;;
20945;SDS011;10632;51.276;7.116;2023-04-01T07:03:06;1.95;;;0.98;;
20945;SDS011;10632;51.276;7.116;2023-04-01T07:05:43;2.10;;;0.80;;
20945;SDS011;10632;51.276;7.116;2023-04-01T07:08:10;2.58;;;0.80;;
20945;SDS011;10632;51.276;7.116;2023-04-01T07:10:43;1.80;;;0.75;;
20945;SDS011;10632;51.276;7.116;2023-04-01T07:13:15;1.25;;;0.60;;
20945;SDS011;10632;51.276;7.116;2023-04-01T07:15:49;1.77;;;0.80;;
20945;SDS011;10632;51.276;7.116;2023-04-01T07:18:25;2.53;;;0.80;;
20945;SDS011;10632;51.276;7.116;2023-04-01T07:20:58;1.63;;;0.65;;
20945;SDS011;10632;51.276;7.116;2023-04-01T07:23:28;2.08;;;0.70;;
20945;SDS011;10632;51.276;7.116;2023-04-01T07:25:59;1.45;;;0.60;;
20945;SDS011;10632;51.276;7.116;2023-04-01T07:28:30;1.50;;;0.70;;
20945;SDS011;10632;51.276;7.116;2023-04-01T07:31:01;1.55;;;0.70;;
20945;SDS011;10632;51.276;7.116;2023-04-01T07:33:39;1.77;;;0.68;;
20945;SDS011;10632;51.276;7.116;2023-04-01T07:36:11;2.00;;;0.82;;
20945;SDS011;10632;51.276;7.116;2023-04-01T07:38:49;1.08;;;0.50;;
20945;SDS011;10632;51.276;7.116;2023-04-01T07:41:26;1.63;;;0.60;;
20945;SDS011;10632;51.276;7.116;2023-04-01T07:44:01;2.03;;;0.70;;
20945;SDS011;10632;51.276;7.116;2023-04-01T07:46:45;2.97;;;0.85;;
20945;SDS011;10632;51.276;7.116;2023-04-01T07:49:22;2.80;;;1.00;;
20945;SDS011;10632;51.276;7.116;2023-04-01T07:51:56;2.33;;;0.80;;
20945;SDS011;10632;51.276;7.116;2023-04-01T07:54:31;1.77;;;0.77;;
20945;SDS011;10632;51.276;7.116;2023-04-01T07:57:07;1.65;;;0.80;;
20945;SDS011;10632;51.276;7.116;2023-04-01T07:59:44;1.85;;;0.90;;
20945;SDS011;10632;51.276;7.116;2023-04-01T08:02:25;2.08;;;0.82;;
20945;SDS011;10632;51.276;7.116;2023-04-01T08:05:01;1.45;;;0.60;;
20945;SDS011;10632;51.276;7.116;2023-04-01T08:07:39;1.85;;;0.85;;
20945;SDS011;10632;51.276;7.116;2023-04-01T08:10:12;1.42;;;0.70;;
20945;SDS011;10632;51.276;7.116;2023-04-01T08:12:47;1.70;;;0.82;;
20945;SDS011;10632;51.276;7.116;2023-04-01T08:15:23;1.00;;;0.50;;
20945;SDS011;10632;51.276;7.116;2023-04-01T08:17:56;1.73;;;0.68;;
20945;SDS011;10632;51.276;7.116;2023-04-01T08:20:33;1.80;;;0.70;;
20945;SDS011;10632;51.276;7.116;2023-04-01T08:23:05;2.65;;;0.68;;
20945;SDS011;10632;51.276;7.116;2023-04-01T08:25:37;2.03;;;0.85;;
20945;SDS011;10632;51.276;7.116;2023-04-01T08:28:13;2.13;;;0.70;;
20945;SDS011;10632;51.276;7.116;2023-04-01T08:30:44;2.03;;;0.80;;
20945;SDS011;10632;51.276;7.116;2023-04-01T08:33:17;2.25;;;0.82;;
20945;SDS011;10632;51.276;7.116;2023-04-01T08:35:51;2.30;;;1.00;;
20945;SDS011;10632;51.276;7.116;2023-04-01T08:38:22;2.45;;;0.82;;
20945;SDS011;10632;51.276;7.116;2023-04-01T08:40:56;1.65;;;0.68;;
20945;SDS011;10632;51.276;7.116;2023-04-01T08:43:40;6.60;;;0.93;;
20945;SDS011;10632;51.276;7.116;2023-04-01T08:46:29;2.20;;;1.05;;
20945;SDS011;10632;51.276;7.116;2023-04-01T08:49:30;1.80;;;0.88;;
20945;SDS011;10632;51.276;7.116;2023-04-01T08:52:15;2.13;;;0.80;;
20945;SDS011;10632;51.276;7.116;2023-04-01T08:54:55;1.98;;;0.90;;
20945;SDS011;10632;51.276;7.116;2023-04-01T08:57:45;1.52;;;0.80;;
20945;SDS011;10632;51.276;7.116;2023-04-01T09:00:25;1.65;;;0.63;;
20945;SDS011;10632;51.276;7.116;2023-04-01T09:11:50;3.05;;;1.20;;
20945;SDS011;10632;51.276;7.116;2023-04-01T09:14:46;3.33;;;1.35;;
20945;SDS011;10632;51.276;7.116;2023-04-01T09:17:51;1.88;;;0.93;;
20945;SDS011;10632;51.276;7.116;2023-04-01T09:20:42;3.53;;;1.40;;
20945;SDS011;10632;51.276;7.116;2023-04-01T09:23:28;3.58;;;1.50;;
20945;SDS011;10632;51.276;7.116;2023-04-01T09:26:17;3.47;;;1.20;;
20945;SDS011;10632;51.276;7.116;2023-04-01T09:28:56;5.63;;;2.10;;
20945;SDS011;10632;51.276;7.116;2023-04-01T09:31:44;4.13;;;1.67;;
20945;SDS011;10632;51.276;7.116;2023-04-01T09:34:32;4.72;;;1.73;;
20945;SDS011;10632;51.276;7.116;2023-04-01T09:37:18;4.85;;;1.85;;
20945;SDS011;10632;51.276;7.116;2023-04-01T09:39:50;5.72;;;2.05;;
20945;SDS011;10632;51.276;7.116;2023-04-01T09:42:41;4.80;;;1.63;;
20945;SDS011;10632;51.276;7.116;2023-04-01T09:45:15;6.32;;;2.30;;
20945;SDS011;10632;51.276;7.116;2023-04-01T09:47:56;6.32;;;1.92;;
20945;SDS011;10632;51.276;7.116;2023-04-01T09:50:34;5.60;;;2.13;;
20945;SDS011;10632;51.276;7.116;2023-04-01T09:53:14;4.85;;;1.67;;
20945;SDS011;10632;51.276;7.116;2023-04-01T10:08:33;7.85;;;2.80;;
20945;SDS011;10632;51.276;7.116;2023-04-01T10:14:31;6.13;;;2.17;;
20945;SDS011;10632;51.276;7.116;2023-04-01T10:20:37;8.15;;;2.60;;
20945;SDS011;10632;51.276;7.116;2023-04-01T10:26:24;7.32;;;2.45;;
20945;SDS011;10632;51.276;7.116;2023-04-01T10:29:18;7.38;;;1.98;;
20945;SDS011;10632;51.276;7.116;2023-04-01T10:35:07;8.77;;;2.95;;
20945;SDS011;10632;51.276;7.116;2023-04-01T10:38:10;7.43;;;2.58;;
20945;SDS011;10632;51.276;7.116;2023-04-01T10:41:11;8.45;;;2.90;;
20945;SDS011;10632;51.276;7.116;2023-04-01T10:47:03;8.77;;;2.92;;
20945;SDS011;10632;51.276;7.116;2023-04-01T11:08:59;5.20;;;1.35;;
20945;SDS011;10632;51.276;7.116;2023-04-01T11:11:57;4.70;;;1.42;;
20945;SDS011;10632;51.276;7.116;2023-04-01T11:21:31;3.47;;;1.38;;
20945;SDS011;10632;51.276;7.116;2023-04-01T11:24:37;3.65;;;1.30;;
20945;SDS011;10632;51.276;7.116;2023-04-01T11:30:29;2.53;;;0.82;;
20945;SDS011;10632;51.276;7.116;2023-04-01T11:33:22;2.63;;;1.10;;
20945;SDS011;10632;51.276;7.116;2023-04-01T11:35:55;3.45;;;1.25;;
20945;SDS011;10632;51.276;7.116;2023-04-01T11:38:36;3.75;;;1.60;;
20945;SDS011;10632;51.276;7.116;2023-04-01T11:41:15;3.92;;;1.90;;
20945;SDS011;10632;51.276;7.116;2023-04-01T11:43:54;4.32;;;1.88;;
20945;SDS011;10632;51.276;7.116;2023-04-01T11:46:38;4.13;;;1.75;;
20945;SDS011;10632;51.276;7.116;2023-04-01T11:49:14;5.20;;;1.88;;
20945;SDS011;10632;51.276;7.116;2023-04-01T11:51:55;4.15;;;1.42;;
20945;SDS011;10632;51.276;7.116;2023-04-01T11:54:56;5.25;;;2.10;;
20945;SDS011;10632;51.276;7.116;2023-04-01T11:57:41;5.38;;;2.03;;
20945;SDS011;10632;51.276;7.116;2023-04-01T12:00:21;5.40;;;2.20;;
20945;SDS011;10632;51.276;7.116;2023-04-01T12:03:17;5.45;;;1.90;;
20945;SDS011;10632;51.276;7.116;2023-04-01T12:05:58;4.43;;;1.75;;
20945;SDS011;10632;51.276;7.116;2023-04-01T12:08:33;6.97;;;2.15;;
20945;SDS011;10632;51.276;7.116;2023-04-01T12:11:12;5.80;;;2.08;;
20945;SDS011;10632;51.276;7.116;2023-04-01T12:13:49;6.10;;;1.80;;
20945;SDS011;10632;51.276;7.116;2023-04-01T12:19:15;6.40;;;2.42;;
20945;SDS011;10632;51.276;7.116;2023-04-01T12:21:52;4.90;;;2.13;;
20945;SDS011;10632;51.276;7.116;2023-04-01T12:24:39;5.60;;;2.25;;
20945;SDS011;10632;51.276;7.116;2023-04-01T12:27:14;5.63;;;2.15;;
20945;SDS011;10632;51.276;7.116;2023-04-01T12:30:01;7.30;;;2.45;;
20945;SDS011;10632;51.276;7.116;2023-04-01T12:32:43;6.22;;;1.98;;
20945;SDS011;10632;51.276;7.116;2023-04-01T12:35:18;5.00;;;2.15;;
20945;SDS011;10632;51.276;7.116;2023-04-01T12:37:55;9.27;;;2.40;;
20945;SDS011;10632;51.276;7.116;2023-04-01T12:40:40;9.45;;;2.30;;
20945;SDS011;10632;51.276;7.116;2023-04-01T12:43:48;8.30;;;3.13;;
20945;SDS011;10632;51.276;7.116;2023-04-01T12:46:37;9.85;;;3.00;;
20945;SDS011;10632;51.276;7.116;2023-04-01T12:49:22;6.90;;;2.50;;
20945;SDS011;10632;51.276;7.116;2023-04-01T12:52:18;8.77;;;2.90;;
20945;SDS011;10632;51.276;7.116;2023-04-01T12:55:01;8.82;;;2.97;;
20945;SDS011;10632;51.276;7.116;2023-04-01T13:01:02;9.23;;;3.15;;
20945;SDS011;10632;51.276;7.116;2023-04-01T13:03:58;7.95;;;2.55;;
20945;SDS011;10632;51.276;7.116;2023-04-01T13:06:50;11.05;;;3.35;;
20945;SDS011;10632;51.276;7.116;2023-04-01T13:09:31;10.18;;;3.33;;
20945;SDS011;10632;51.276;7.116;2023-04-01T13:12:15;8.07;;;2.80;;
20945;SDS011;10632;51.276;7.116;2023-04-01T13:15:12;8.55;;;2.92;;
20945;SDS011;10632;51.276;7.116;2023-04-01T13:17:50;7.10;;;2.40;;
20945;SDS011;10632;51.276;7.116;2023-04-01T13:20:28;7.53;;;2.53;;
20945;SDS011;10632;51.276;7.116;2023-04-01T13:23:07;8.35;;;2.67;;
20945;SDS011;10632;51.276;7.116;2023-04-01T13:25:46;8.43;;;2.67;;
20945;SDS011;10632;51.276;7.116;2023-04-01T13:28:20;8.93;;;3.22;;
20945;SDS011;10632;51.276;7.116;2023-04-01T13:30:53;9.57;;;3.05;;
20945;SDS011;10632;51.276;7.116;2023-04-01T13:33:27;10.95;;;3.40;;
20945;SDS011;10632;51.276;7.116;2023-04-01T13:36:05;8.80;;;3.08;;
20945;SDS011;10632;51.276;7.116;2023-04-01T13:44:37;10.32;;;3.60;;
20945;SDS011;10632;51.276;7.116;2023-04-01T13:56:19;10.57;;;3.22;;
20945;SDS011;10632;51.276;7.116;2023-04-01T13:58:59;14.55;;;3.67;;
20945;SDS011;10632;51.276;7.116;2023-04-01T14:01:42;8.63;;;2.75;;
20945;SDS011;10632;51.276;7.116;2023-04-01T14:04:25;9.77;;;3.45;;
20945;SDS011;10632;51.276;7.116;2023-04-01T14:07:31;9.80;;;3.22;;
20945;SDS011;10632;51.276;7.116;2023-04-01T14:10:08;6.05;;;2.58;;
20945;SDS011;10632;51.276;7.116;2023-04-01T14:12:46;6.57;;;2.58;;
20945;SDS011;10632;51.276;7.116;2023-04-01T14:15:29;9.38;;;3.00;;
20945;SDS011;10632;51.276;7.116;2023-04-01T14:21:21;6.53;;;2.33;;
20945;SDS011;10632;51.276;7.116;2023-04-01T14:24:17;7.45;;;2.20;;
20945;SDS011;10632;51.276;7.116;2023-04-01T14:27:01;6.75;;;2.60;;
20945;SDS011;10632;51.276;7.116;2023-04-01T14:29:48;6.72;;;2.38;;
20945;SDS011;10632;51.276;7.116;2023-04-01T14:32:26;5.57;;;2.10;;
20945;SDS011;10632;51.276;7.116;2023-04-01T14:35:09;5.57;;;1.88;;
20945;SDS011;10632;51.276;7.116;2023-04-01T14:37:54;4.53;;;2.00;;
20945;SDS011;10632;51.276;7.116;2023-04-01T14:43:35;7.03;;;2.42;;
20945;SDS011;10632;51.276;7.116;2023-04-01T14:49:41;7.60;;;2.47;;
20945;SDS011;10632;51.276;7.116;2023-04-01T14:52:14;8.18;;;2.72;;
20945;SDS011;10632;51.276;7.116;2023-04-01T14:54:44;7.13;;;2.42;;
20945;SDS011;10632;51.276;7.116;2023-04-01T14:57:14;6.75;;;2.50;;
20945;SDS011;10632;51.276;7.116;2023-04-01T14:59:49;6.05;;;2.30;;
20945;SDS011;10632;51.276;7.116;2023-04-01T15:05:15;4.85;;;2.05;;
20945;SDS011;10632;51.276;7.116;2023-04-01T15:08:03;5.65;;;2.28;;
20945;SDS011;10632;51.276;7.116;2023-04-01T15:16:49;4.78;;;1.70;;
20945;SDS011;10632;51.276;7.116;2023-04-01T15:19:29;5.32;;;2.03;;
20945;SDS011;10632;51.276;7.116;2023-04-01T15:22:08;4.47;;;2.03;;
20945;SDS011;10632;51.276;7.116;2023-04-01T15:24:52;4.78;;;1.95;;
20945;SDS011;10632;51.276;7.116;2023-04-01T15:27:33;4.30;;;1.77;;
20945;SDS011;10632;51.276;7.116;2023-04-01T15:33:07;5.70;;;2.00;;
20945;SDS011;10632;51.276;7.116;2023-04-01T15:35:56;7.72;;;2.10;;
20945;SDS011;10632;51.276;7.116;2023-04-01T15:38:30;5.28;;;1.73;;
20945;SDS011;10632;51.276;7.116;2023-04-01T15:41:05;4.05;;;1.73;;
20945;SDS011;10632;51.276;7.116;2023-04-01T15:43:40;5.75;;;1.90;;
20945;SDS011;10632;51.276;7.116;2023-04-01T15:46:21;4.05;;;1.55;;
20945;SDS011;10632;51.276;7.116;2023-04-01T15:49:09;4.60;;;1.52;;
20945;SDS011;10632;51.276;7.116;2023-04-01T15:54:37;5.07;;;1.70;;
20945;SDS011;10632;51.276;7.116;2023-04-01T15:57:25;9.85;;;2.08;;
20945;SDS011;10632;51.276;7.116;2023-04-01T16:00:09;9.45;;;1.90;;
20945;SDS011;10632;51.276;7.116;2023-04-01T16:02:49;6.25;;;1.80;;
20945;SDS011;10632;51.276;7.116;2023-04-01T16:05:34;4.50;;;1.67;;
20945;SDS011;10632;51.276;7.116;2023-04-01T16:08:23;6.07;;;2.10;;
20945;SDS011;10632;51.276;7.116;2023-04-01T16:11:14;4.43;;;1.70;;
20945;SDS011;10632;51.276;7.116;2023-04-01T16:13:52;4.35;;;1.63;;
20945;SDS011;10632;51.276;7.116;2023-04-01T16:16:31;5.18;;;1.60;;
20945;SDS011;10632;51.276;7.116;2023-04-01T16:19:21;5.03;;;1.60;;
20945;SDS011;10632;51.276;7.116;2023-04-01T16:21:58;4.57;;;1.63;;
20945;SDS011;10632;51.276;7.116;2023-04-01T16:24:31;6.93;;;1.98;;
20945;SDS011;10632;51.276;7.116;2023-04-01T16:27:02;5.45;;;2.00;;
20945;SDS011;10632;51.276;7.116;2023-04-01T16:29:37;5.45;;;2.10;;
20945;SDS011;10632;51.276;7.116;2023-04-01T16:32:15;3.40;;;1.55;;
20945;SDS011;10632;51.276;7.116;2023-04-01T16:34:47;4.40;;;1.52;;
20945;SDS011;10632;51.276;7.116;2023-04-01T16:37:28;5.47;;;2.10;;
20945;SDS011;10632;51.276;7.116;2023-04-01T16:40:04;6.35;;;2.65;;
20945;SDS011;10632;51.276;7.116;2023-04-01T16:42:43;5.85;;;2.13;;
20945;SDS011;10632;51.276;7.116;2023-04-01T16:45:21;5.78;;;2.25;;
20945;SDS011;10632;51.276;7.116;2023-04-01T16:47:57;7.10;;;2.33;;
20945;SDS011;10632;51.276;7.116;2023-04-01T16:50:39;7.45;;;2.42;;
20945;SDS011;10632;51.276;7.116;2023-04-01T16:53:15;6.55;;;2.17;;
20945;SDS011;10632;51.276;7.116;2023-04-01T16:55:48;7.97;;;2.40;;
20945;SDS011;10632;51.276;7.116;2023-04-01T16:58:20;6.30;;;2.58;;
20945;SDS011;10632;51.276;7.116;2023-04-01T17:00:52;6.40;;;2.03;;
20945;SDS011;10632;51.276;7.116;2023-04-01T17:03:26;8.02;;;1.95;;
20945;SDS011;10632;51.276;7.116;2023-04-01T17:06:00;5.88;;;1.80;;
20945;SDS011;10632;51.276;7.116;2023-04-01T17:08:44;6.88;;;2.00;;
20945;SDS011;10632;51.276;7.116;2023-04-01T17:11:31;4.43;;;1.75;;
20945;SDS011;10632;51.276;7.116;2023-04-01T17:14:07;5.25;;;2.00;;
20945;SDS011;10632;51.276;7.116;2023-04-01T17:16:57;5.07;;;2.00;;
20945;SDS011;10632;51.276;7.116;2023-04-01T17:19:54;5.30;;;1.55;;
20945;SDS011;10632;51.276;7.116;2023-04-01T17:22:28;5.13;;;1.98;;
20945;SDS011;10632;51.276;7.116;2023-04-01T17:25:02;4.72;;;1.80;;
20945;SDS011;10632;51.276;7.116;2023-04-01T17:27:47;5.70;;;1.92;;
20945;SDS011;10632;51.276;7.116;2023-04-01T17:30:21;5.18;;;1.92;;
20945;SDS011;10632;51.276;7.116;2023-04-01T17:33:02;5.80;;;2.40;;
20945;SDS011;10632;51.276;7.116;2023-04-01T17:35:42;5.05;;;1.92;;
20945;SDS011;10632;51.276;7.116;2023-04-01T17:38:20;5.90;;;2.30;;
20945;SDS011;10632;51.276;7.116;2023-04-01T17:40:57;5.60;;;1.77;;